Time;durP1;ratioP1;P1;durP2;ratioP2;P2;SDS_P1;SDS_P2;PMS_P1;PMS_P2;Temp;Humidity;BMP_temperature;BMP_pressure;BME280_temperature;BME280_humidity;BME280_pressure;Samples;Min_cycle;Max_cycle;Signal;HPM_P1;HPM_P2
2022/07/22 00:00:22;;;;;;;5.03;4.03;;;;;;;;;;6240857;22;20275;-73
2022/07/22 00:02:49;;;;;;;4.80;4.28;;;;;;;;;;6238976;23;19996;-73
2022/07/22 00:05:15;;;;;;;4.30;3.90;;;;;;;;;;6238698;23;20006;-73
2022/07/22 00:07:41;;;;;;;4.38;3.90;;;;;;;;;;6242972;23;20016;-73
2022/07/22 00:10:10;;;;;;;4.72;3.83;;;;;;;;;;6242797;23;20083;-74
2022/07/22 00:12:37;;;;;;;4.60;3.97;;;;;;;;;;6240891;23;20451;-73
2022/07/22 00:15:03;;;;;;;4.15;3.75;;;;;;;;;;6242830;23;20004;-75
2022/07/22 00:17:29;;;;;;;4.25;3.90;;;;;;;;;;6239636;23;20012;-73
2022/07/22 00:19:55;;;;;;;5.05;3.78;;;;;;;;;;6239011;23;20535;-75
2022/07/22 00:22:22;;;;;;;4.43;3.90;;;;;;;;;;6238736;23;20547;-72
2022/07/22 00:24:48;;;;;;;4.55;3.83;;;;;;;;;;6238852;23;20459;-74
2022/07/22 00:27:14;;;;;;;6.78;3.90;;;;;;;;;;6241053;23;19996;-72
2022/07/22 00:29:40;;;;;;;4.18;3.78;;;;;;;;;;6240537;23;20008;-75
2022/07/22 00:32:06;;;;;;;5.40;4.00;;;;;;;;;;6241735;23;20007;-75
2022/07/22 00:34:32;;;;;;;4.82;3.88;;;;;;;;;;6242800;23;20000;-74
2022/07/22 00:36:58;;;;;;;4.32;3.90;;;;;;;;;;6241762;23;20035;-73
2022/07/22 00:39:25;;;;;;;5.88;4.03;;;;;;;;;;6242279;23;20000;-73
2022/07/22 00:41:51;;;;;;;4.13;3.75;;;;;;;;;;6242538;23;20035;-74
2022/07/22 00:44:17;;;;;;;14.93;4.20;;;;;;;;;;6242458;23;20000;-74
2022/07/22 00:46:43;;;;;;;4.30;3.70;;;;;;;;;;6242573;23;20003;-73
2022/07/22 00:49:10;;;;;;;4.35;3.45;;;;;;;;;;6240873;23;20072;-73
2022/07/22 00:51:39;;;;;;;4.88;3.92;;;;;;;;;;6242704;23;20008;-73
2022/07/22 00:54:05;;;;;;;3.92;3.50;;;;;;;;;;6242617;23;20384;-73
2022/07/22 00:56:32;;;;;;;4.75;4.25;;;;;;;;;;6242406;23;20018;-73
2022/07/22 00:59:00;;;;;;;5.65;4.57;;;;;;;;;;6242266;22;20331;-73
2022/07/22 01:01:26;;;;;;;5.28;4.40;;;;;;;;;;6240224;23;20469;-73
2022/07/22 01:03:52;;;;;;;6.07;4.30;;;;;;;;;;6238468;23;20317;-73
2022/07/22 01:06:18;;;;;;;5.32;4.25;;;;;;;;;;6238728;23;20033;-73
2022/07/22 01:08:44;;;;;;;5.57;4.20;;;;;;;;;;6215531;23;20321;-74
2022/07/22 01:11:12;;;;;;;5.50;4.10;;;;;;;;;;6239455;23;20005;-73
2022/07/22 01:13:38;;;;;;;5.00;4.50;;;;;;;;;;6242111;23;20008;-75
2022/07/22 01:16:05;;;;;;;4.40;4.00;;;;;;;;;;6242179;23;20004;-73
2022/07/22 01:18:31;;;;;;;5.32;4.32;;;;;;;;;;6242048;23;20004;-73
2022/07/22 01:20:57;;;;;;;4.70;4.30;;;;;;;;;;6240649;23;20004;-75
2022/07/22 01:23:24;;;;;;;4.50;4.10;;;;;;;;;;6242539;23;20000;-73
2022/07/22 01:25:50;;;;;;;4.30;3.90;;;;;;;;;;6242157;23;20075;-74
2022/07/22 01:28:16;;;;;;;4.20;3.80;;;;;;;;;;6242285;23;20007;-73
2022/07/22 01:30:42;;;;;;;4.47;4.07;;;;;;;;;;6240291;23;19999;-74
2022/07/22 01:33:08;;;;;;;4.65;4.15;;;;;;;;;;6242124;23;20012;-73
2022/07/22 01:35:34;;;;;;;4.53;4.15;;;;;;;;;;6242188;23;20018;-73
2022/07/22 01:38:01;;;;;;;4.30;3.90;;;;;;;;;;6242348;23;20054;-73
2022/07/22 01:40:27;;;;;;;6.50;3.95;;;;;;;;;;6242552;23;20067;-73
2022/07/22 01:42:53;;;;;;;4.53;4.10;;;;;;;;;;6240529;23;20000;-73
2022/07/22 01:45:19;;;;;;;5.30;4.03;;;;;;;;;;6244539;23;20004;-73
2022/07/22 01:47:45;;;;;;;4.72;4.32;;;;;;;;;;6244403;23;20022;-75
2022/07/22 01:50:11;;;;;;;6.88;4.00;;;;;;;;;;6244274;23;20441;-73
2022/07/22 01:52:39;;;;;;;7.78;4.43;;;;;;;;;;6244048;23;20000;-75
2022/07/22 01:55:06;;;;;;;4.10;3.70;;;;;;;;;;6244457;23;20038;-73
2022/07/22 01:57:32;;;;;;;4.15;3.85;;;;;;;;;;6242357;23;20005;-74
2022/07/22 01:59:58;;;;;;;6.07;4.10;;;;;;;;;;6243857;22;20000;-75
2022/07/22 02:02:24;;;;;;;5.75;3.88;;;;;;;;;;6244784;23;20011;-75
2022/07/22 02:04:50;;;;;;;4.93;3.47;;;;;;;;;;6244221;23;20000;-75
2022/07/22 02:07:16;;;;;;;4.35;3.90;;;;;;;;;;6242756;23;19996;-74
2022/07/22 02:09:43;;;;;;;5.35;3.90;;;;;;;;;;6244309;23;20049;-73
2022/07/22 02:12:09;;;;;;;4.22;3.80;;;;;;;;;;6243861;23;20462;-75
2022/07/22 02:14:35;;;;;;;4.10;3.70;;;;;;;;;;6242050;23;20016;-74
2022/07/22 02:17:01;;;;;;;4.00;3.70;;;;;;;;;;6244105;23;20012;-73
2022/07/22 02:19:27;;;;;;;3.90;3.50;;;;;;;;;;6243827;23;20051;-74
2022/07/22 02:21:54;;;;;;;4.32;3.63;;;;;;;;;;6242119;23;20000;-74
2022/07/22 02:24:20;;;;;;;3.80;3.40;;;;;;;;;;6244381;23;20081;-76
2022/07/22 02:26:46;;;;;;;5.43;3.65;;;;;;;;;;6243885;23;20008;-73
2022/07/22 02:29:12;;;;;;;5.65;3.72;;;;;;;;;;6244129;23;20021;-75
2022/07/22 02:31:38;;;;;;;3.65;3.08;;;;;;;;;;6241240;23;20000;-73
2022/07/22 02:34:05;;;;;;;6.40;3.42;;;;;;;;;;6239504;23;20000;-75
2022/07/22 02:36:31;;;;;;;4.03;3.50;;;;;;;;;;6239788;23;20020;-75
2022/07/22 02:38:57;;;;;;;5.40;3.63;;;;;;;;;;6243452;23;20336;-75
2022/07/22 02:41:23;;;;;;;4.18;3.38;;;;;;;;;;6244137;23;20004;-73
2022/07/22 02:43:53;;;;;;;4.35;3.42;;;;;;;;;;6243625;23;20003;-73
2022/07/22 02:46:19;;;;;;;4.47;3.45;;;;;;;;;;6242520;23;20004;-73
2022/07/22 02:48:45;;;;;;;3.95;3.55;;;;;;;;;;6243667;23;19997;-75
2022/07/22 02:51:11;;;;;;;3.70;3.40;;;;;;;;;;6243623;23;20007;-75
2022/07/22 02:53:38;;;;;;;4.22;3.65;;;;;;;;;;6242143;23;20007;-75
2022/07/22 02:56:04;;;;;;;4.00;3.42;;;;;;;;;;6243024;23;20004;-73
2022/07/22 02:58:30;;;;;;;3.95;3.55;;;;;;;;;;6243630;22;20011;-73
2022/07/22 03:00:56;;;;;;;4.15;3.60;;;;;;;;;;6243298;23;20000;-73
2022/07/22 03:03:23;;;;;;;3.95;3.30;;;;;;;;;;6241780;23;20004;-73
2022/07/22 03:05:49;;;;;;;6.18;3.63;;;;;;;;;;6243492;23;20363;-72
2022/07/22 03:08:16;;;;;;;7.25;3.60;;;;;;;;;;6243691;23;19996;-72
2022/07/22 03:10:42;;;;;;;4.47;3.53;;;;;;;;;;6242331;23;20011;-75
2022/07/22 03:13:08;;;;;;;7.00;3.60;;;;;;;;;;6237464;23;20564;-74
2022/07/22 03:15:34;;;;;;;4.03;3.72;;;;;;;;;;6239095;23;20454;-74
2022/07/22 03:18:01;;;;;;;3.42;3.13;;;;;;;;;;6219678;23;19999;-74
2022/07/22 03:20:27;;;;;;;4.15;3.75;;;;;;;;;;6233380;23;20075;-74
2022/07/22 03:22:53;;;;;;;4.13;3.15;;;;;;;;;;6233048;23;20000;-76
2022/07/22 03:25:19;;;;;;;4.03;3.63;;;;;;;;;;6237170;23;20030;-74
2022/07/22 03:27:45;;;;;;;5.80;3.63;;;;;;;;;;6235563;23;20023;-75
2022/07/22 03:30:12;;;;;;;4.25;3.83;;;;;;;;;;6237732;23;20448;-73
2022/07/22 03:32:38;;;;;;;4.07;3.67;;;;;;;;;;6237181;23;19997;-72
2022/07/22 03:35:05;;;;;;;4.30;3.90;;;;;;;;;;6236770;23;20012;-75
2022/07/22 03:37:31;;;;;;;3.78;3.47;;;;;;;;;;6235468;23;20023;-74
2022/07/22 03:39:57;;;;;;;4.05;3.65;;;;;;;;;;6237457;23;20012;-72
2022/07/22 03:42:23;;;;;;;7.18;3.80;;;;;;;;;;6232748;23;20004;-73
2022/07/22 03:44:49;;;;;;;4.60;3.45;;;;;;;;;;6230685;23;20007;-76
2022/07/22 03:47:19;;;;;;;4.25;3.42;;;;;;;;;;6227393;23;20019;-73
2022/07/22 03:49:45;;;;;;;5.75;3.78;;;;;;;;;;6230221;23;20012;-74
2022/07/22 03:52:12;;;;;;;3.78;3.35;;;;;;;;;;6230159;23;20668;-74
2022/07/22 03:54:39;;;;;;;4.70;3.75;;;;;;;;;;6229441;23;20004;-74
2022/07/22 03:57:05;;;;;;;5.60;3.80;;;;;;;;;;6227978;23;20039;-74
2022/07/22 03:59:31;;;;;;;4.15;3.75;;;;;;;;;;6229841;22;20000;-72
2022/07/22 04:01:57;;;;;;;5.80;4.10;;;;;;;;;;6228670;23;20015;-73
2022/07/22 04:04:23;;;;;;;4.90;4.00;;;;;;;;;;6229075;23;20436;-73
2022/07/22 04:06:51;;;;;;;5.07;4.10;;;;;;;;;;6227705;23;20004;-75
2022/07/22 04:09:17;;;;;;;4.88;4.43;;;;;;;;;;6230404;23;20004;-73
2022/07/22 04:11:43;;;;;;;5.05;4.65;;;;;;;;;;6229554;23;20087;-74
2022/07/22 04:14:09;;;;;;;7.85;3.95;;;;;;;;;;6228936;23;20019;-73
2022/07/22 04:16:35;;;;;;;6.13;4.28;;;;;;;;;;6229137;23;20585;-73
2022/07/22 04:19:02;;;;;;;9.40;4.22;;;;;;;;;;6227608;23;20310;-74
2022/07/22 04:21:28;;;;;;;6.03;3.97;;;;;;;;;;6226034;23;20008;-74
2022/07/22 04:23:55;;;;;;;4.07;3.67;;;;;;;;;;6228646;23;20011;-72
2022/07/22 04:26:21;;;;;;;4.25;3.80;;;;;;;;;;6228526;23;20079;-72
2022/07/22 04:28:47;;;;;;;4.63;4.10;;;;;;;;;;6226150;23;20007;-73
2022/07/22 04:31:13;;;;;;;8.10;4.40;;;;;;;;;;6227640;23;20065;-72
2022/07/22 04:33:39;;;;;;;25.90;5.10;;;;;;;;;;6225254;23;19996;-73
2022/07/22 04:36:05;;;;;;;11.45;4.78;;;;;;;;;;6200997;23;20008;-72
2022/07/22 04:38:32;;;;;;;15.65;4.72;;;;;;;;;;6229760;23;20011;-72
2022/07/22 04:40:58;;;;;;;6.80;4.72;;;;;;;;;;6229532;23;19992;-72
2022/07/22 04:43:24;;;;;;;9.25;5.20;;;;;;;;;;6229782;23;20058;-72
2022/07/22 04:45:50;;;;;;;5.07;4.57;;;;;;;;;;6229205;23;20020;-73
2022/07/22 04:48:17;;;;;;;6.10;4.50;;;;;;;;;;6229465;23;20003;-74
2022/07/22 04:50:43;;;;;;;5.10;4.50;;;;;;;;;;6229526;23;20008;-73
2022/07/22 04:53:09;;;;;;;6.35;4.60;;;;;;;;;;6227300;23;20004;-73
2022/07/22 04:55:36;;;;;;;9.35;4.60;;;;;;;;;;6228839;23;20095;-73
2022/07/22 04:58:02;;;;;;;5.50;4.82;;;;;;;;;;6229330;22;20019;-72
2022/07/22 05:00:28;;;;;;;6.00;4.47;;;;;;;;;;6228851;23;20053;-73
2022/07/22 05:02:54;;;;;;;4.72;4.22;;;;;;;;;;6229696;23;20014;-73
2022/07/22 05:05:21;;;;;;;4.75;4.32;;;;;;;;;;6227797;23;20032;-73
2022/07/22 05:07:47;;;;;;;5.60;4.30;;;;;;;;;;6229094;23;20077;-73
2022/07/22 05:10:13;;;;;;;5.28;4.78;;;;;;;;;;6228405;23;20047;-73
2022/07/22 05:12:39;;;;;;;10.27;5.25;;;;;;;;;;6228487;23;20016;-73
2022/07/22 05:15:06;;;;;;;9.15;5.00;;;;;;;;;;6230260;23;20011;-73
2022/07/22 05:17:32;;;;;;;9.90;4.68;;;;;;;;;;6199914;23;20495;-73
2022/07/22 05:19:58;;;;;;;7.13;5.20;;;;;;;;;;6229203;23;20006;-73
2022/07/22 05:22:24;;;;;;;6.75;4.38;;;;;;;;;;6229184;23;20004;-73
2022/07/22 05:24:51;;;;;;;10.75;5.00;;;;;;;;;;6229260;23;20008;-73
2022/07/22 05:27:18;;;;;;;6.03;5.30;;;;;;;;;;6227820;23;20008;-73
2022/07/22 05:29:44;;;;;;;10.63;5.20;;;;;;;;;;6228900;23;20058;-72
2022/07/22 05:32:10;;;;;;;8.93;5.30;;;;;;;;;;6228693;23;20000;-73
2022/07/22 05:34:36;;;;;;;9.95;5.13;;;;;;;;;;6226641;23;20019;-73
2022/07/22 05:37:02;;;;;;;9.13;5.32;;;;;;;;;;6229055;23;20141;-73
2022/07/22 05:39:28;;;;;;;7.25;5.45;;;;;;;;;;6229102;23;19992;-73
2022/07/22 05:41:54;;;;;;;7.35;4.65;;;;;;;;;;6199685;23;20015;-73
2022/07/22 05:44:21;;;;;;;8.88;5.70;;;;;;;;;;6229753;23;20014;-73
2022/07/22 05:46:47;;;;;;;5.90;4.80;;;;;;;;;;6229453;23;20008;-73
2022/07/22 05:49:13;;;;;;;7.35;5.30;;;;;;;;;;6229270;23;20107;-73
2022/07/22 05:51:39;;;;;;;6.68;5.10;;;;;;;;;;6228938;23;20598;-73
2022/07/22 05:54:05;;;;;;;6.03;4.95;;;;;;;;;;6226947;23;19992;-73
2022/07/22 05:56:31;;;;;;;7.82;4.85;;;;;;;;;;6228927;23;20008;-73
2022/07/22 05:58:58;;;;;;;6.85;5.32;;;;;;;;;;6229071;22;20016;-73
2022/07/22 06:01:24;;;;;;;8.70;5.13;;;;;;;;;;6229024;23;20043;-73
2022/07/22 06:03:50;;;;;;;5.82;5.10;;;;;;;;;;6227091;23;20000;-73
2022/07/22 06:06:16;;;;;;;9.40;6.00;;;;;;;;;;6229124;23;20701;-72
2022/07/22 06:08:42;;;;;;;5.15;4.63;;;;;;;;;;6229116;23;20054;-73
2022/07/22 06:11:09;;;;;;;8.07;4.30;;;;;;;;;;6229488;23;20008;-73
2022/07/22 06:13:35;;;;;;;4.65;4.20;;;;;;;;;;6229247;23;20012;-73
2022/07/22 06:16:01;;;;;;;4.78;4.38;;;;;;;;;;6227034;23;20011;-73
2022/07/22 06:18:27;;;;;;;4.50;4.10;;;;;;;;;;6228409;23;20011;-73
2022/07/22 06:20:54;;;;;;;5.15;4.45;;;;;;;;;;6228981;23;20000;-72
2022/07/22 06:23:20;;;;;;;7.00;4.80;;;;;;;;;;6227328;23;20004;-74
2022/07/22 06:25:46;;;;;;;7.07;5.32;;;;;;;;;;6228946;23;20024;-72
2022/07/22 06:28:12;;;;;;;7.10;4.60;;;;;;;;;;6202084;23;20004;-73
2022/07/22 06:30:39;;;;;;;5.90;4.25;;;;;;;;;;6229600;23;20071;-73
2022/07/22 06:33:05;;;;;;;4.95;4.45;;;;;;;;;;6228514;23;20000;-73
2022/07/22 06:35:31;;;;;;;8.20;4.30;;;;;;;;;;6230531;23;20011;-73
2022/07/22 06:37:57;;;;;;;7.93;4.38;;;;;;;;;;6201979;23;20023;-73
2022/07/22 06:40:23;;;;;;;6.07;4.65;;;;;;;;;;6230423;23;20008;-73
2022/07/22 06:42:50;;;;;;;4.95;4.35;;;;;;;;;;6230673;23;20000;-73
2022/07/22 06:45:16;;;;;;;4.82;4.22;;;;;;;;;;6228663;23;20084;-73
2022/07/22 06:47:42;;;;;;;4.60;4.00;;;;;;;;;;6230553;23;19996;-72
2022/07/22 06:50:09;;;;;;;6.00;4.97;;;;;;;;;;6203971;23;20008;-73
2022/07/22 06:52:38;;;;;;;6.13;4.35;;;;;;;;;;6230024;23;20003;-73
2022/07/22 06:55:05;;;;;;;5.30;4.53;;;;;;;;;;6201722;23;20008;-73
2022/07/22 06:57:31;;;;;;;7.28;4.97;;;;;;;;;;6230651;23;20024;-73
2022/07/22 06:59:57;;;;;;;5.00;4.47;;;;;;;;;;6231199;22;20004;-73
2022/07/22 07:02:23;;;;;;;4.55;4.15;;;;;;;;;;6230335;23;20008;-73
2022/07/22 07:04:49;;;;;;;5.07;4.47;;;;;;;;;;6228482;23;20455;-73
2022/07/22 07:07:15;;;;;;;6.30;4.75;;;;;;;;;;6230567;23;20019;-73
2022/07/22 07:09:42;;;;;;;5.13;4.63;;;;;;;;;;6230697;23;20011;-73
2022/07/22 07:12:08;;;;;;;5.05;4.55;;;;;;;;;;6229818;23;20033;-73
2022/07/22 07:14:34;;;;;;;7.38;5.00;;;;;;;;;;6201615;23;20466;-73
2022/07/22 07:17:00;;;;;;;4.95;4.50;;;;;;;;;;6230016;23;20023;-73
2022/07/22 07:19:27;;;;;;;5.45;4.70;;;;;;;;;;6229349;23;20057;-73
2022/07/22 07:21:53;;;;;;;5.40;4.90;;;;;;;;;;6230651;23;20008;-73
2022/07/22 07:24:19;;;;;;;7.93;5.32;;;;;;;;;;6228418;23;20000;-72
2022/07/22 07:26:45;;;;;;;7.30;5.00;;;;;;;;;;6230691;23;20004;-74
2022/07/22 07:29:11;;;;;;;6.03;4.95;;;;;;;;;;6231152;23;20134;-73
2022/07/22 07:31:37;;;;;;;14.90;5.38;;;;;;;;;;6232915;23;20008;-73
2022/07/22 07:34:03;;;;;;;11.63;5.30;;;;;;;;;;6232911;23;20008;-73
2022/07/22 07:36:29;;;;;;;8.23;5.30;;;;;;;;;;6231186;23;20016;-73
2022/07/22 07:38:55;;;;;;;6.43;5.53;;;;;;;;;;6205783;23;20298;-73
2022/07/22 07:41:22;;;;;;;5.78;5.28;;;;;;;;;;6233491;23;20028;-73
2022/07/22 07:43:48;;;;;;;5.68;5.15;;;;;;;;;;6233338;23;20027;-72
2022/07/22 07:46:14;;;;;;;5.40;4.90;;;;;;;;;;6233222;23;20019;-72
2022/07/22 07:48:40;;;;;;;5.75;5.25;;;;;;;;;;6233009;23;20075;-72
2022/07/22 07:51:07;;;;;;;7.38;5.05;;;;;;;;;;6230566;23;20450;-72
2022/07/22 07:53:33;;;;;;;6.88;4.88;;;;;;;;;;6231158;23;20315;-72
2022/07/22 07:55:59;;;;;;;5.30;4.90;;;;;;;;;;6231172;23;20005;-71
2022/07/22 07:58:26;;;;;;;5.65;5.00;;;;;;;;;;6231542;22;20008;-71
2022/07/22 08:00:52;;;;;;;4.97;4.47;;;;;;;;;;6229077;23;20396;-72
2022/07/22 08:03:18;;;;;;;4.80;4.40;;;;;;;;;;6230637;23;20001;-71
2022/07/22 08:05:44;;;;;;;6.20;4.72;;;;;;;;;;6230538;23;20129;-72
2022/07/22 08:08:10;;;;;;;5.55;4.93;;;;;;;;;;6229769;23;20011;-72
2022/07/22 08:10:36;;;;;;;9.30;4.82;;;;;;;;;;6230360;23;20008;-72
2022/07/22 08:13:03;;;;;;;6.53;4.70;;;;;;;;;;6229954;23;20445;-72
2022/07/22 08:15:30;;;;;;;5.22;4.72;;;;;;;;;;6227964;23;20008;-72
2022/07/22 08:17:56;;;;;;;8.45;5.15;;;;;;;;;;6231809;23;20008;-72
2022/07/22 08:20:23;;;;;;;5.63;4.97;;;;;;;;;;6199991;23;20007;-73
2022/07/22 08:22:50;;;;;;;6.88;5.00;;;;;;;;;;6230399;23;20311;-72
2022/07/22 08:25:16;;;;;;;5.25;4.78;;;;;;;;;;6231978;23;20098;-72
2022/07/22 08:27:42;;;;;;;7.97;4.70;;;;;;;;;;6206049;23;20028;-71
2022/07/22 08:30:09;;;;;;;7.53;5.07;;;;;;;;;;6230137;23;20408;-72
2022/07/22 08:32:35;;;;;;;5.50;5.00;;;;;;;;;;6230945;23;20000;-72
2022/07/22 08:35:01;;;;;;;6.00;5.05;;;;;;;;;;6231240;23;20341;-72
2022/07/22 08:37:28;;;;;;;5.53;4.65;;;;;;;;;;6231891;23;20738;-72
2022/07/22 08:39:54;;;;;;;5.78;5.07;;;;;;;;;;6231903;23;19996;-71
2022/07/22 08:42:24;;;;;;;5.40;4.90;;;;;;;;;;6231312;23;20004;-71
2022/07/22 08:44:50;;;;;;;6.47;4.57;;;;;;;;;;6230178;23;20075;-71
2022/07/22 08:47:21;;;;;;;5.75;4.78;;;;;;;;;;6230861;23;20067;-72
2022/07/22 08:49:47;;;;;;;6.17;5.10;;;;;;;;;;6231067;23;20007;-72
2022/07/22 08:52:13;;;;;;;5.88;4.47;;;;;;;;;;6229263;23;20004;-72
2022/07/22 08:54:39;;;;;;;5.05;4.65;;;;;;;;;;6231250;23;20049;-71
2022/07/22 08:57:05;;;;;;;5.13;4.20;;;;;;;;;;6231734;23;20552;-72
2022/07/22 08:59:31;;;;;;;5.18;4.47;;;;;;;;;;6230814;22;20012;-72
2022/07/22 09:02:11;;;;;;;6.25;4.72;;;;;;;;;;6229924;23;20004;-71
2022/07/22 09:05:06;;;;;;;5.50;5.00;;;;;;;;;;6230906;23;20000;-71
2022/07/22 09:07:34;;;;;;;5.65;5.15;;;;;;;;;;6204543;23;20080;-72
2022/07/22 09:10:01;;;;;;;7.18;5.28;;;;;;;;;;6231434;23;20213;-76
2022/07/22 09:12:29;;;;;;;7.95;5.20;;;;;;;;;;6229387;23;20007;-77
2022/07/22 09:14:57;;;;;;;5.50;5.07;;;;;;;;;;6231409;23;20005;-72
2022/07/22 09:17:38;;;;;;;6.05;5.47;;;;;;;;;;6231334;23;20069;-74
2022/07/22 09:20:05;;;;;;;;;;;;;;;;;;6231915;23;20004;-75
2022/07/22 09:22:37;;;;;;;6.93;5.68;;;;;;;;;;6231304;23;20002;-76
2022/07/22 09:25:25;;;;;;;5.97;5.38;;;;;;;;;;6229537;23;19997;-76
2022/07/22 09:27:52;;;;;;;5.70;5.20;;;;;;;;;;6231283;23;19996;-76
2022/07/22 09:30:20;;;;;;;5.43;4.47;;;;;;;;;;6228189;23;20008;-73
2022/07/22 09:32:47;;;;;;;5.70;5.20;;;;;;;;;;6230387;23;20007;-74
2022/07/22 09:35:14;;;;;;;5.60;5.10;;;;;;;;;;6230176;23;20032;-74
2022/07/22 09:37:50;;;;;;;5.65;5.20;;;;;;;;;;6230408;23;20012;-78
2022/07/22 09:40:27;;;;;;;8.20;5.25;;;;;;;;;;6229289;23;20046;-78
2022/07/22 09:42:57;;;;;;;5.05;4.55;;;;;;;;;;6204365;23;20008;-76
2022/07/22 09:45:24;;;;;;;5.45;4.95;;;;;;;;;;6231667;23;20004;-77
2022/07/22 09:47:51;;;;;;;6.13;4.90;;;;;;;;;;6231280;23;20004;-75
2022/07/22 09:50:23;;;;;;;5.32;4.82;;;;;;;;;;6229026;23;20083;-77
2022/07/22 09:52:50;;;;;;;6.45;4.65;;;;;;;;;;6231888;23;19996;-78
2022/07/22 09:55:19;;;;;;;5.63;4.55;;;;;;;;;;6231150;23;20015;-76
2022/07/22 09:57:45;;;;;;;6.15;4.88;;;;;;;;;;6230766;22;20401;-76
2022/07/22 10:00:12;;;;;;;5.10;4.35;;;;;;;;;;6231589;23;20482;-75
2022/07/22 10:02:45;;;;;;;5.32;4.82;;;;;;;;;;6230079;23;20012;-75
2022/07/22 10:05:13;;;;;;;5.75;5.20;;;;;;;;;;6231883;23;20066;-75
2022/07/22 10:07:41;;;;;;;5.10;4.65;;;;;;;;;;6232420;23;20000;-76
2022/07/22 10:10:07;;;;;;;4.95;4.53;;;;;;;;;;6231962;23;20000;-75
2022/07/22 10:12:34;;;;;;;4.85;4.30;;;;;;;;;;6230712;23;20103;-73
2022/07/22 10:15:01;;;;;;;4.90;4.50;;;;;;;;;;6233472;23;20011;-75
2022/07/22 10:17:27;;;;;;;6.00;4.30;;;;;;;;;;6232699;23;20062;-73
2022/07/22 10:19:53;;;;;;;5.03;4.57;;;;;;;;;;6232926;23;20047;-73
2022/07/22 10:22:38;;;;;;;5.13;4.45;;;;;;;;;;6232714;23;20641;-74
2022/07/22 10:25:04;;;;;;;4.65;4.30;;;;;;;;;;6204991;23;20052;-75
2022/07/22 10:28:03;;;;;;;4.95;4.45;;;;;;;;;;6232205;23;20294;-74
2022/07/22 10:30:33;;;;;;;5.43;4.32;;;;;;;;;;6164907;23;20004;-75
2022/07/22 10:33:07;;;;;;;5.72;4.57;;;;;;;;;;6232593;23;20004;-75
2022/07/22 10:35:33;;;;;;;4.25;3.85;;;;;;;;;;6232597;23;20004;-75
2022/07/22 10:38:01;;;;;;;4.57;4.18;;;;;;;;;;6232466;23;20006;-73
2022/07/22 10:40:29;;;;;;;4.90;4.45;;;;;;;;;;6231301;23;20027;-73
2022/07/22 10:42:58;;;;;;;5.15;4.60;;;;;;;;;;6233391;23;20011;-75
2022/07/22 10:45:25;;;;;;;4.90;4.50;;;;;;;;;;6232574;23;20000;-75
2022/07/22 10:47:54;;;;;;;5.18;4.78;;;;;;;;;;6232676;23;20008;-75
2022/07/22 10:50:37;;;;;;;5.00;4.60;;;;;;;;;;6232092;23;20008;-72
2022/07/22 10:53:04;;;;;;;7.25;5.05;;;;;;;;;;6230710;23;20000;-74
2022/07/22 10:55:30;;;;;;;4.97;4.57;;;;;;;;;;6232656;23;20026;-73
2022/07/22 10:57:56;;;;;;;5.97;5.00;;;;;;;;;;6232282;22;20079;-76
2022/07/22 11:00:22;;;;;;;5.07;4.68;;;;;;;;;;6232404;23;19999;-75
2022/07/22 11:02:49;;;;;;;5.45;4.45;;;;;;;;;;6233101;23;20030;-74
2022/07/22 11:05:25;;;;;;;5.15;4.75;;;;;;;;;;6230649;23;20003;-75
2022/07/22 11:07:51;;;;;;;5.57;5.00;;;;;;;;;;6232392;23;20079;-76
2022/07/22 11:10:19;;;;;;;4.70;4.15;;;;;;;;;;6232397;23;20027;-77
2022/07/22 11:12:46;;;;;;;5.10;4.68;;;;;;;;;;6232741;23;20295;-77
2022/07/22 11:15:12;;;;;;;4.80;4.43;;;;;;;;;;6230439;23;20440;-73
2022/07/22 11:17:39;;;;;;;4.75;4.32;;;;;;;;;;6231751;23;20013;-75
2022/07/22 11:20:07;;;;;;;4.68;4.00;;;;;;;;;;6231737;23;20001;-76
2022/07/22 11:22:34;;;;;;;6.22;5.00;;;;;;;;;;6232749;23;20065;-75
2022/07/22 11:25:05;;;;;;;5.70;4.40;;;;;;;;;;6231679;23;20023;-73
2022/07/22 11:27:31;;;;;;;4.40;4.05;;;;;;;;;;6231008;23;20004;-73
2022/07/22 11:29:58;;;;;;;4.50;4.10;;;;;;;;;;6233200;23;20038;-75
2022/07/22 11:32:25;;;;;;;4.45;4.03;;;;;;;;;;6232140;23;19996;-75
2022/07/22 11:34:51;;;;;;;4.65;4.22;;;;;;;;;;6234363;23;20012;-77
2022/07/22 11:37:19;;;;;;;3.90;3.60;;;;;;;;;;6234878;23;20244;-77
2022/07/22 11:39:45;;;;;;;5.70;4.35;;;;;;;;;;6235972;23;20020;-76
2022/07/22 11:42:11;;;;;;;4.75;4.22;;;;;;;;;;6235865;23;20004;-76
2022/07/22 11:44:38;;;;;;;4.80;3.90;;;;;;;;;;6236480;23;20180;-77
2022/07/22 11:47:05;;;;;;;4.70;4.30;;;;;;;;;;6231947;23;20004;-75
2022/07/22 11:49:35;;;;;;;6.18;4.30;;;;;;;;;;6232114;23;20000;-77
2022/07/22 11:52:04;;;;;;;5.07;4.45;;;;;;;;;;6205792;23;20004;-76
2022/07/22 11:54:31;;;;;;;13.05;4.97;;;;;;;;;;6231947;23;20001;-77
2022/07/22 11:56:57;;;;;;;4.47;4.13;;;;;;;;;;6231134;23;20012;-79
2022/07/22 11:59:23;;;;;;;4.90;4.45;;;;;;;;;;6230515;22;20445;-76
2022/07/22 12:01:49;;;;;;;6.60;4.35;;;;;;;;;;6231592;23;20003;-75
2022/07/22 12:04:19;;;;;;;4.50;4.10;;;;;;;;;;6232119;23;20001;-76
2022/07/22 12:06:46;;;;;;;4.10;3.80;;;;;;;;;;6231479;23;20008;-75
2022/07/22 12:09:13;;;;;;;7.35;4.70;;;;;;;;;;6231472;23;20000;-77
2022/07/22 12:11:40;;;;;;;4.90;4.38;;;;;;;;;;6203472;23;20801;-76
2022/07/22 12:14:11;;;;;;;4.80;4.40;;;;;;;;;;6232223;23;20012;-77
2022/07/22 12:16:38;;;;;;;5.78;4.55;;;;;;;;;;6232268;23;20015;-77
2022/07/22 12:19:05;;;;;;;5.47;4.72;;;;;;;;;;6231607;23;19999;-75
2022/07/22 12:21:50;;;;;;;5.05;4.55;;;;;;;;;;6231796;23;20004;-74
2022/07/22 12:24:17;;;;;;;5.35;4.78;;;;;;;;;;6232014;23;20004;-76
2022/07/22 12:26:45;;;;;;;6.47;4.90;;;;;;;;;;6229122;23;20049;-77
2022/07/22 12:29:14;;;;;;;4.60;4.20;;;;;;;;;;6231748;23;20011;-76
2022/07/22 12:32:00;;;;;;;6.20;5.00;;;;;;;;;;6231743;23;20011;-75
2022/07/22 12:34:32;;;;;;;5.53;5.03;;;;;;;;;;6231909;23;20008;-73
2022/07/22 12:36:59;;;;;;;5.35;4.80;;;;;;;;;;6230275;23;20066;-73
2022/07/22 12:39:25;;;;;;;5.07;4.57;;;;;;;;;;6230359;23;20020;-74
2022/07/22 12:41:53;;;;;;;5.20;4.70;;;;;;;;;;6230764;23;20035;-74
2022/07/22 12:44:24;;;;;;;4.93;4.53;;;;;;;;;;6231365;23;20061;-72
2022/07/22 12:46:52;;;;;;;7.95;4.80;;;;;;;;;;6231659;23;20004;-72
2022/07/22 12:49:19;;;;;;;9.13;4.40;;;;;;;;;;6229848;23;20005;-73
2022/07/22 12:52:04;;;;;;;6.03;4.22;;;;;;;;;;6231860;23;20000;-72
2022/07/22 12:54:30;;;;;;;5.55;4.60;;;;;;;;;;6231989;23;20028;-73
2022/07/22 12:56:56;;;;;;;5.40;4.95;;;;;;;;;;6232088;23;20019;-72
2022/07/22 12:59:23;;;;;;;5.88;5.03;;;;;;;;;;6225774;22;20004;-74
2022/07/22 13:01:49;;;;;;;5.50;5.00;;;;;;;;;;6226715;23;20000;-72
2022/07/22 13:04:15;;;;;;;4.78;4.30;;;;;;;;;;6229074;23;20012;-72
2022/07/22 13:06:42;;;;;;;4.88;4.47;;;;;;;;;;6228137;23;20015;-73
2022/07/22 13:09:08;;;;;;;5.97;4.18;;;;;;;;;;6229010;23;20007;-72
2022/07/22 13:11:39;;;;;;;5.50;4.88;;;;;;;;;;6228241;23;20012;-73
2022/07/22 13:14:05;;;;;;;4.88;4.13;;;;;;;;;;6227447;23;20043;-73
2022/07/22 13:16:32;;;;;;;6.82;4.75;;;;;;;;;;6229522;23;20515;-72
2022/07/22 13:18:59;;;;;;;5.88;4.47;;;;;;;;;;6228782;23;20062;-72
2022/07/22 13:21:25;;;;;;;4.57;4.15;;;;;;;;;;6228349;23;20008;-72
2022/07/22 13:23:51;;;;;;;4.88;4.47;;;;;;;;;;6228759;23;20268;-73
2022/07/22 13:26:17;;;;;;;4.43;4.10;;;;;;;;;;6227537;23;20071;-73
2022/07/22 13:28:43;;;;;;;5.53;4.43;;;;;;;;;;6228791;23;20004;-72
2022/07/22 13:31:10;;;;;;;4.30;3.97;;;;;;;;;;6228549;23;20012;-72
2022/07/22 13:33:36;;;;;;;5.63;4.20;;;;;;;;;;6228525;23;20107;-72
2022/07/22 13:36:03;;;;;;;5.00;4.40;;;;;;;;;;6228984;23;20079;-73
2022/07/22 13:38:30;;;;;;;4.40;4.07;;;;;;;;;;6228455;23;20604;-75
2022/07/22 13:40:56;;;;;;;5.07;4.13;;;;;;;;;;6226322;23;20000;-71
2022/07/22 13:43:23;;;;;;;6.82;4.28;;;;;;;;;;6229217;23;20011;-72
2022/07/22 13:45:50;;;;;;;5.60;4.18;;;;;;;;;;6228442;23;20000;-72
2022/07/22 13:48:20;;;;;;;4.82;4.05;;;;;;;;;;6228937;23;20004;-72
2022/07/22 13:50:47;;;;;;;4.55;4.18;;;;;;;;;;6228791;23;20070;-72
2022/07/22 13:53:13;;;;;;;4.13;3.83;;;;;;;;;;6228374;23;20038;-72
2022/07/22 13:55:40;;;;;;;4.07;3.67;;;;;;;;;;6226600;23;20483;-73
2022/07/22 13:58:06;;;;;;;5.50;3.70;;;;;;;;;;6226799;22;20078;-72
2022/07/22 14:00:32;;;;;;;4.40;4.00;;;;;;;;;;6228341;23;20063;-71
2022/07/22 14:02:59;;;;;;;4.15;3.85;;;;;;;;;;6228223;23;20032;-72
2022/07/22 14:05:25;;;;;;;4.35;4.00;;;;;;;;;;6228034;23;20080;-72
2022/07/22 14:07:52;;;;;;;4.15;3.83;;;;;;;;;;6226464;23;20008;-72
2022/07/22 14:10:18;;;;;;;4.20;3.90;;;;;;;;;;6228492;23;20294;-72
2022/07/22 14:12:44;;;;;;;4.13;3.70;;;;;;;;;;6227947;23;20008;-72
2022/07/22 14:15:11;;;;;;;4.57;3.80;;;;;;;;;;6226332;23;20441;-72
2022/07/22 14:17:38;;;;;;;5.70;3.88;;;;;;;;;;6228794;23;20043;-74
2022/07/22 14:20:07;;;;;;;4.05;3.70;;;;;;;;;;6228012;23;20618;-73
2022/07/22 14:22:33;;;;;;;4.72;3.78;;;;;;;;;;6225441;23;20004;-72
2022/07/22 14:24:59;;;;;;;6.22;4.05;;;;;;;;;;6228695;23;20000;-72
2022/07/22 14:27:25;;;;;;;5.25;4.20;;;;;;;;;;6228357;23;20674;-72
2022/07/22 14:29:51;;;;;;;5.78;4.35;;;;;;;;;;6228642;23;20099;-72
2022/07/22 14:32:18;;;;;;;12.18;4.20;;;;;;;;;;6228596;23;20004;-73
2022/07/22 14:34:44;;;;;;;7.03;4.28;;;;;;;;;;6228126;23;20094;-71
2022/07/22 14:37:11;;;;;;;4.95;4.38;;;;;;;;;;6227261;23;20118;-73
2022/07/22 14:39:37;;;;;;;4.55;4.07;;;;;;;;;;6228600;23;20000;-72
2022/07/22 14:42:03;;;;;;;13.25;4.32;;;;;;;;;;6228127;23;20061;-72